createdAt,value
2017-01-05T00:01:52.486Z,99.99
2017-01-05T00:04:04.955Z,99.99
2017-01-05T00:06:19.349Z,99.99
2017-01-05T00:08:34.630Z,99.99
2017-01-05T00:10:43.203Z,99.99
2017-01-05T00:12:51.947Z,99.99
2017-01-05T00:15:04.372Z,99.99
2017-01-05T00:17:16.799Z,99.99
2017-01-05T00:19:32.101Z,99.99
2017-01-05T00:21:47.080Z,99.99
2017-01-05T00:23:59.441Z,99.99
2017-01-05T00:26:07.413Z,99.99
2017-01-05T00:28:20.634Z,99.99
2017-01-05T00:30:33.655Z,99.99
2017-01-05T00:32:46.130Z,99.99
2017-01-05T00:34:53.865Z,99.99
2017-01-05T00:37:08.405Z,99.99
2017-01-05T00:39:20.879Z,99.99
2017-01-05T00:41:33.932Z,99.99
2017-01-05T00:43:46.208Z,99.99
2017-01-05T00:45:58.788Z,99.99
2017-01-05T00:48:11.141Z,99.99
2017-01-05T00:50:23.407Z,99.99
2017-01-05T00:52:35.980Z,99.99
2017-01-05T00:54:48.336Z,99.99
2017-01-05T00:56:55.759Z,99.99
2017-01-05T00:59:03.108Z,99.99
2017-01-05T01:01:15.600Z,99.99
2017-01-05T01:03:28.614Z,99.99
2017-01-05T01:05:36.491Z,99.99
2017-01-05T01:07:43.747Z,99.99
2017-01-05T01:09:51.338Z,99.99
2017-01-05T01:11:58.690Z,99.99
2017-01-05T01:14:11.084Z,99.99
2017-01-05T01:16:23.617Z,99.99
2017-01-05T01:18:36.077Z,99.99
2017-01-05T01:20:48.740Z,99.99
2017-01-05T01:22:56.125Z,99.99
2017-01-05T01:25:08.638Z,99.99
2017-01-05T01:27:20.971Z,99.99
2017-01-05T01:29:33.558Z,99.99
2017-01-05T01:31:45.926Z,99.99
2017-01-05T01:33:58.313Z,99.99
2017-01-05T01:36:05.826Z,99.99
2017-01-05T01:38:18.448Z,99.99
2017-01-05T01:40:30.960Z,99.99
2017-01-05T01:42:43.211Z,99.99
2017-01-05T01:44:55.511Z,99.99
2017-01-05T01:47:08.022Z,99.99
2017-01-05T01:49:20.375Z,99.99
2017-01-05T01:51:33.800Z,99.99
2017-01-05T01:53:46.060Z,99.99
2017-01-05T01:56:02.398Z,99.99
2017-01-05T01:58:13.544Z,99.99
2017-01-05T02:00:26.931Z,99.99
2017-01-05T02:02:39.369Z,99.99
2017-01-05T02:04:51.625Z,99.99
2017-01-05T02:07:05.218Z,99.99
2017-01-05T02:09:17.629Z,99.99
2017-01-05T02:11:25.112Z,99.99
2017-01-05T02:13:37.982Z,99.99
2017-01-05T02:15:50.621Z,99.99
2017-01-05T02:18:02.914Z,99.99
2017-01-05T02:20:15.652Z,99.99
2017-01-05T02:22:28.153Z,99.99
2017-01-05T02:24:41.925Z,99.99
2017-01-05T02:26:54.186Z,99.99
2017-01-05T02:29:06.685Z,99.99
2017-01-05T02:31:32.392Z,99.99
2017-01-05T02:33:44.966Z,99.99
2017-01-05T02:35:57.751Z,99.99
2017-01-05T02:38:10.096Z,99.99
2017-01-05T02:40:22.867Z,99.99
2017-01-05T02:42:35.253Z,99.99
2017-01-05T02:44:47.656Z,99.95
2017-01-05T02:47:00.440Z,98.89
2017-01-05T02:49:13.042Z,99.41
2017-01-05T02:51:25.788Z,97.74
2017-01-05T02:53:38.358Z,98.26
2017-01-05T02:55:50.905Z,98.3
2017-01-05T02:58:03.334Z,98.41
2017-01-05T03:00:15.861Z,98.2
2017-01-05T03:02:28.619Z,98.1
2017-01-05T03:04:30.980Z,97.57
2017-01-05T03:06:43.240Z,98.14
2017-01-05T03:08:55.600Z,98.92
2017-01-05T03:11:07.847Z,99.02
2017-01-05T03:13:20.103Z,99.28
2017-01-05T03:15:32.422Z,99.11
2017-01-05T03:17:45.642Z,98.27
2017-01-05T03:19:58.000Z,97.64
2017-01-05T03:22:11.795Z,97.33
2017-01-05T03:24:14.686Z,97.53
2017-01-05T03:26:22.149Z,96.27
2017-01-05T03:28:34.290Z,95.11
2017-01-05T03:30:47.722Z,94.9
2017-01-05T03:33:00.050Z,95.11
2017-01-05T03:35:12.593Z,96.21
2017-01-05T03:37:24.881Z,96.25
2017-01-05T03:39:38.179Z,95.31
2017-01-05T03:41:45.638Z,95.31
2017-01-05T03:43:53.025Z,95.45
2017-01-05T03:46:00.556Z,95.24
2017-01-05T03:48:12.887Z,94.93
2017-01-05T03:50:25.114Z,94.15
2017-01-05T03:52:37.452Z,92.88
2017-01-05T03:54:49.619Z,91.51
2017-01-05T03:57:02.066Z,92.14
2017-01-05T03:59:14.979Z,92.77
2017-01-05T04:01:27.286Z,92.35
2017-01-05T04:03:39.491Z,92.18
2017-01-05T04:05:51.876Z,94.12
2017-01-05T04:07:59.224Z,93.91
2017-01-05T04:10:11.407Z,93.49
2017-01-05T04:12:24.901Z,93.6
2017-01-05T04:14:37.279Z,92.54
2017-01-05T04:16:44.485Z,90.43
2017-01-05T04:18:56.810Z,89.9
2017-01-05T04:21:09.117Z,90.01
2017-01-05T04:23:16.330Z,90.89
2017-01-05T04:25:23.807Z,89.98
2017-01-05T04:27:36.050Z,91.36
2017-01-05T04:29:48.499Z,92.03
2017-01-05T04:32:01.370Z,92.6
2017-01-05T04:34:14.208Z,93.13
2017-01-05T04:36:26.440Z,92.5
2017-01-05T04:38:38.648Z,93.28
2017-01-05T04:40:50.885Z,93.81
2017-01-05T04:43:03.136Z,94.87
2017-01-05T04:45:15.420Z,92.96
2017-01-05T04:47:28.003Z,92.43
2017-01-05T04:49:40.179Z,92.43
2017-01-05T04:51:47.556Z,93.21
2017-01-05T04:53:59.943Z,93.53
2017-01-05T04:56:12.287Z,93.74
2017-01-05T04:58:19.779Z,93.32
2017-01-05T05:00:32.185Z,92.58
2017-01-05T05:02:44.595Z,92.37
2017-01-05T05:04:57.111Z,93.26
2017-01-05T05:07:09.952Z,93.79
2017-01-05T05:09:22.393Z,93.47
2017-01-05T05:11:34.920Z,94.21
2017-01-05T05:13:42.373Z,93.57
2017-01-05T05:15:54.792Z,93.89
2017-01-05T05:18:07.103Z,93.26
2017-01-05T05:20:19.333Z,93.93
2017-01-05T05:22:31.483Z,93.26
2017-01-05T05:24:43.701Z,94.1
2017-01-05T05:26:56.085Z,93.89
2017-01-05T05:29:08.271Z,94.1
2017-01-05T05:31:15.586Z,92.47
2017-01-05T05:33:27.902Z,92.9
2017-01-05T05:35:36.427Z,93.85
2017-01-05T05:37:48.905Z,94.64
2017-01-05T05:40:01.352Z,95.53
2017-01-05T05:42:09.008Z,95.48
2017-01-05T05:44:22.471Z,95.17
2017-01-05T05:46:34.963Z,94.17
2017-01-05T05:48:48.394Z,94.48
2017-01-05T05:51:00.658Z,93.6
2017-01-05T05:53:12.959Z,93.7
2017-01-05T05:55:20.270Z,94.23
2017-01-05T05:57:17.574Z,94.93
2017-01-05T05:59:29.827Z,93.87
2017-01-05T06:01:42.197Z,94.19
2017-01-05T06:03:54.605Z,94.09
2017-01-05T06:06:07.021Z,94.19
2017-01-05T06:08:19.518Z,92.92
2017-01-05T06:10:27.081Z,94.09
2017-01-05T06:12:34.374Z,94.19
2017-01-05T06:14:47.146Z,94.76
2017-01-05T06:16:54.539Z,94.87
2017-01-05T06:18:56.909Z,94.65
2017-01-05T06:21:09.802Z,94.81
2017-01-05T06:23:17.222Z,95.01
2017-01-05T06:25:25.756Z,94.55
2017-01-05T06:29:45.475Z,94.29
2017-01-05T06:31:57.871Z,93.02
2017-01-05T06:34:10.136Z,93.02
2017-01-05T06:36:22.463Z,92.6
2017-01-05T06:38:34.828Z,93.38
2017-01-05T06:40:51.363Z,93.6
2017-01-05T06:43:10.917Z,93.7
2017-01-05T06:45:27.320Z,93.81
2017-01-05T06:47:56.108Z,94.34
2017-01-05T06:50:22.998Z,94.48
2017-01-05T06:52:30.738Z,95.01
2017-01-05T06:54:43.176Z,95.27
2017-01-05T06:56:50.799Z,95.69
2017-01-05T06:59:03.175Z,96.26
2017-01-05T07:01:15.527Z,96.9
2017-01-05T07:03:27.901Z,96.78
2017-01-05T07:05:40.385Z,97.52
2017-01-05T07:07:52.980Z,98.68
2017-01-05T07:10:05.408Z,98.68
2017-01-05T07:12:18.748Z,98.68
2017-01-05T07:14:31.318Z,98.58
2017-01-05T07:16:43.648Z,98.79
2017-01-05T07:18:55.950Z,98.68
2017-01-05T07:21:08.256Z,98.68
2017-01-05T07:23:15.623Z,98.11
2017-01-05T07:25:28.056Z,98.11
2017-01-05T07:27:40.321Z,98.11
2017-01-05T07:29:52.691Z,98.16
2017-01-05T07:32:05.151Z,98.47
2017-01-05T07:34:17.385Z,98.52
2017-01-05T07:36:29.855Z,99.43
2017-01-05T07:38:32.545Z,99.53
2017-01-05T07:40:45.082Z,99.53
2017-01-05T07:42:52.564Z,99.8
2017-01-05T07:45:01.942Z,99.76
2017-01-05T07:47:15.805Z,99.82
2017-01-05T07:49:28.302Z,99.57
2017-01-05T07:51:40.504Z,99.31
2017-01-05T07:53:52.607Z,98.68
2017-01-05T07:56:04.909Z,97.99
2017-01-05T07:58:12.183Z,97.47
2017-01-05T08:00:25.046Z,96.83
2017-01-05T08:02:37.546Z,96.26
2017-01-05T08:04:49.850Z,95.37
2017-01-05T08:07:02.211Z,95.06
2017-01-05T08:09:09.586Z,94.42
2017-01-05T08:11:22.189Z,93.11
2017-01-05T08:13:29.476Z,91.85
2017-01-05T08:15:41.635Z,92.48
2017-01-05T08:17:54.075Z,91.63
2017-01-05T08:20:06.248Z,91.7
2017-01-05T08:22:13.479Z,92.44
2017-01-05T08:24:26.003Z,91.44
2017-01-05T08:26:36.872Z,92.29
2017-01-05T08:28:44.085Z,91.97
2017-01-05T08:30:51.392Z,92.08
2017-01-05T08:33:03.596Z,92.14
2017-01-05T08:35:06.055Z,91.93
2017-01-05T08:37:13.479Z,93.19
2017-01-05T08:39:25.659Z,93.62
2017-01-05T08:41:37.938Z,94.42
2017-01-05T08:43:50.086Z,94.73
2017-01-05T08:46:02.341Z,94.8
2017-01-05T08:48:18.251Z,93.01
2017-01-05T08:50:32.306Z,93.74
2017-01-05T08:52:39.838Z,94.06
2017-01-05T08:54:47.092Z,94.59
2017-01-05T08:56:54.547Z,95.01
2017-01-05T08:59:06.964Z,95.11
2017-01-05T09:01:14.433Z,95.39
2017-01-05T09:03:26.672Z,95.39
2017-01-05T09:05:49.754Z,95.24
2017-01-05T09:08:27.981Z,95.07
2017-01-05T09:10:42.844Z,94.76
2017-01-05T09:12:55.221Z,94.23
2017-01-05T09:15:07.452Z,94.65
2017-01-05T09:17:19.678Z,93.24
2017-01-05T09:19:32.212Z,92.08
2017-01-05T09:21:44.583Z,91.35
2017-01-05T09:23:51.902Z,90.4
2017-01-05T09:26:04.525Z,92.25
2017-01-05T09:28:16.758Z,92.25
2017-01-05T09:30:29.218Z,88.99
2017-01-05T09:32:41.622Z,89.83
2017-01-05T09:34:53.869Z,90.11
2017-01-05T09:37:06.121Z,88.42
2017-01-05T09:39:18.479Z,88.53
2017-01-05T09:41:30.870Z,87.54
2017-01-05T09:43:43.285Z,87.23
2017-01-05T09:45:55.572Z,88.13
2017-01-05T09:48:07.977Z,86.87
2017-01-05T09:50:20.321Z,84.67
2017-01-05T09:52:27.662Z,84.25
2017-01-05T09:54:29.961Z,84.45
2017-01-05T09:56:42.393Z,83.61
2017-01-05T09:58:54.707Z,83.68
2017-01-05T10:01:07.319Z,87.88
2017-01-05T10:03:19.990Z,89.14
2017-01-05T10:05:32.184Z,89.77
2017-01-05T10:07:44.608Z,90.78
2017-01-05T10:09:56.993Z,91.3
2017-01-05T10:12:09.207Z,90.67
2017-01-05T10:14:16.734Z,91.2
2017-01-05T10:16:29.080Z,91.47
2017-01-05T10:18:41.483Z,89.44
2017-01-05T10:20:48.886Z,88.49
2017-01-05T10:23:01.185Z,89.29
2017-01-05T10:25:13.681Z,88.77
2017-01-05T10:27:21.121Z,88.21
2017-01-05T10:29:33.407Z,84.12
2017-01-05T10:31:45.837Z,86.43
2017-01-05T10:33:58.154Z,86.63
2017-01-05T10:36:10.573Z,87.64
2017-01-05T10:38:22.987Z,87.33
2017-01-05T10:40:35.277Z,88.12
2017-01-05T10:42:47.597Z,85.78
2017-01-05T10:44:59.757Z,87.21
2017-01-05T10:47:12.088Z,87.07
2017-01-05T10:49:24.491Z,85.71
2017-01-05T10:51:36.812Z,87.21
2017-01-05T10:53:49.196Z,87.98
2017-01-05T10:55:56.419Z,86.1
2017-01-05T10:58:08.785Z,87.15
2017-01-05T11:00:21.298Z,86.37
2017-01-05T11:02:33.867Z,87.04
2017-01-05T11:04:46.183Z,86.83
2017-01-05T11:06:58.344Z,87.42
2017-01-05T11:09:10.659Z,86.65
2017-01-05T11:11:22.911Z,86.38
2017-01-05T11:13:35.168Z,84.84
2017-01-05T11:15:45.744Z,83.14
2017-01-05T11:17:53.130Z,81.79
2017-01-05T11:20:05.415Z,81.99
2017-01-05T11:22:17.827Z,81.85
2017-01-05T11:24:29.457Z,81.5
2017-01-05T11:26:45.570Z,80.53
2017-01-05T11:29:07.282Z,80.94
2017-01-05T11:31:23.396Z,80.11
2017-01-05T11:33:57.981Z,81.4
2017-01-05T11:36:14.818Z,82.68
2017-01-05T11:38:33.519Z,83.8
2017-01-05T11:40:49.238Z,85.1
2017-01-05T11:43:13.260Z,85.76
2017-01-05T11:45:37.631Z,86.84
2017-01-05T11:48:05.302Z,86.69
2017-01-05T11:50:37.539Z,86.24
2017-01-05T11:53:10.249Z,85.05
2017-01-05T11:55:35.783Z,84.64
2017-01-05T11:58:04.407Z,85.68
2017-01-05T12:00:44.941Z,85.16
2017-01-05T12:03:31.805Z,84.99
2017-01-05T12:06:20.840Z,83.84
2017-01-05T12:09:15.125Z,85.9
2017-01-05T12:12:07.840Z,86.25
2017-01-05T12:15:02.439Z,86.77
2017-01-05T12:17:47.052Z,87.02
2017-01-05T12:20:08.259Z,88.8
2017-01-05T12:22:46.498Z,86.43
2017-01-05T12:25:24.267Z,87.51
2017-01-05T12:27:54.200Z,88.84
2017-01-05T12:30:27.451Z,90.03
2017-01-05T12:33:01.881Z,90.49
2017-01-05T12:35:32.863Z,90.91
2017-01-05T12:38:09.353Z,91.5
2017-01-05T12:40:42.056Z,91.66
2017-01-05T12:43:12.337Z,91.2
2017-01-05T12:45:37.107Z,88.87
2017-01-05T12:48:08.854Z,88.59
2017-01-05T12:50:40.133Z,89.22
2017-01-05T12:53:02.245Z,89.64
2017-01-05T12:55:22.669Z,88.21
2017-01-05T12:57:48.192Z,89.09
2017-01-05T13:00:20.601Z,90.09
2017-01-05T13:02:47.518Z,91.14
2017-01-05T13:05:17.053Z,89.83
2017-01-05T13:07:45.064Z,90.66
2017-01-05T13:10:16.475Z,89.78
2017-01-05T13:12:38.552Z,88.7
2017-01-05T13:15:16.279Z,87.51
2017-01-05T13:17:51.637Z,88.34
2017-01-05T13:20:22.881Z,88.9
2017-01-05T13:23:02.415Z,90.72
2017-01-05T13:25:23.586Z,90.72
2017-01-05T13:27:37.618Z,90.31
2017-01-05T13:29:49.959Z,90.62
2017-01-05T13:32:02.331Z,89.45
2017-01-05T13:36:20.485Z,90.11
2017-01-05T13:38:32.716Z,90.26
2017-01-05T13:40:39.965Z,91.06
2017-01-05T13:42:42.337Z,91.22
2017-01-05T13:44:49.570Z,89.83
2017-01-05T13:47:01.903Z,88.78
2017-01-05T13:49:09.237Z,88.74
2017-01-05T13:51:21.702Z,89.01
2017-01-05T13:53:29.075Z,87.34
2017-01-05T13:55:41.613Z,87.48
2017-01-05T13:57:55.139Z,89.34
2017-01-05T14:00:07.745Z,90.53
2017-01-05T14:02:20.100Z,89.98
2017-01-05T14:04:27.427Z,90.61
2017-01-05T14:06:39.668Z,91.71
2017-01-05T14:08:47.014Z,92.44
2017-01-05T14:10:59.411Z,91.71
2017-01-05T14:13:06.923Z,92.13
2017-01-05T14:15:14.304Z,91.01
2017-01-05T14:17:26.731Z,90.53
2017-01-05T14:19:39.213Z,91.41
2017-01-05T14:21:46.556Z,92.46
2017-01-05T14:23:58.713Z,93.44
2017-01-05T14:26:10.890Z,94.01
2017-01-05T14:28:23.166Z,94.69
2017-01-05T14:30:30.777Z,95.53
2017-01-05T14:32:43.253Z,96.1
2017-01-05T14:34:55.602Z,96.67
2017-01-05T14:37:02.949Z,96.98
2017-01-05T14:39:15.257Z,97.09
2017-01-05T14:41:22.760Z,97.51
2017-01-05T14:43:35.186Z,97.57
2017-01-05T14:45:47.475Z,98.2
2017-01-05T14:47:59.866Z,97.78
2017-01-05T14:50:12.371Z,97.74
2017-01-05T14:52:24.667Z,97.84
2017-01-05T14:54:36.984Z,97.21
2017-01-05T14:56:47.741Z,97.36
2017-01-05T14:59:00.251Z,97.09
2017-01-05T15:01:12.591Z,97.66
2017-01-05T15:03:24.960Z,98.29
2017-01-05T15:05:32.224Z,98.29
2017-01-05T15:07:44.530Z,98.18
2017-01-05T15:09:51.870Z,98.86
2017-01-05T15:12:04.340Z,99.43
2017-01-05T15:14:16.758Z,99.54
2017-01-05T15:16:29.347Z,99.58
2017-01-05T15:18:41.707Z,99.73
2017-01-05T15:20:54.149Z,99.95
2017-01-05T15:23:06.484Z,99.99
2017-01-05T15:25:18.841Z,99.99
2017-01-05T15:27:31.185Z,99.99
2017-01-05T15:29:43.445Z,99.99
2017-01-05T15:31:55.830Z,99.99
2017-01-05T15:34:08.005Z,99.99
2017-01-05T15:36:15.433Z,99.99
2017-01-05T15:38:27.649Z,99.99
2017-01-05T15:40:40.038Z,99.99
2017-01-05T15:42:52.615Z,99.99
2017-01-05T15:45:04.880Z,99.99
2017-01-05T15:47:17.363Z,99.99
2017-01-05T15:49:29.650Z,99.99
2017-01-05T15:51:42.136Z,99.99
2017-01-05T15:53:54.391Z,99.99
2017-01-05T15:56:07.070Z,99.99
2017-01-05T15:58:19.525Z,99.99
2017-01-05T16:00:31.959Z,99.99
2017-01-05T16:02:44.692Z,99.99
2017-01-05T16:04:56.990Z,99.99
2017-01-05T16:07:09.256Z,99.99
2017-01-05T16:09:24.768Z,99.99
2017-01-05T16:11:43.043Z,99.99
2017-01-05T16:14:00.205Z,99.99
2017-01-05T16:16:16.057Z,99.99
2017-01-05T16:18:28.545Z,99.99
2017-01-05T16:20:40.949Z,99.99
2017-01-05T16:22:53.389Z,99.99
2017-01-05T16:25:05.756Z,99.99
2017-01-05T16:27:19.126Z,99.99
2017-01-05T16:29:31.500Z,99.99
2017-01-05T16:31:38.854Z,99.99
2017-01-05T16:33:51.083Z,99.99
2017-01-05T16:36:03.461Z,99.99
2017-01-05T16:38:15.787Z,99.99
2017-01-05T16:40:28.279Z,99.99
2017-01-05T16:42:42.108Z,99.99
2017-01-05T16:44:54.514Z,99.99
2017-01-05T16:47:01.789Z,99.99
2017-01-05T16:49:14.212Z,99.99
2017-01-05T16:51:21.671Z,99.99
2017-01-05T16:53:33.988Z,99.99
2017-01-05T16:55:46.464Z,99.99
2017-01-05T16:57:58.954Z,99.99
2017-01-05T17:00:11.308Z,99.99
2017-01-05T17:02:23.548Z,99.99
2017-01-05T17:04:30.878Z,99.99
2017-01-05T17:06:43.292Z,99.99
2017-01-05T17:08:55.555Z,99.99
2017-01-05T17:11:07.957Z,99.99
2017-01-05T17:13:20.464Z,99.99
2017-01-05T17:15:33.356Z,99.99
2017-01-05T17:17:45.604Z,99.99
2017-01-05T17:19:58.052Z,99.99
2017-01-05T17:22:10.226Z,99.99
2017-01-05T17:24:22.472Z,99.99
2017-01-05T17:26:34.912Z,99.99
2017-01-05T17:28:47.415Z,99.99
2017-01-05T17:30:59.814Z,99.99
2017-01-05T17:33:12.246Z,99.99
2017-01-05T17:35:24.567Z,99.99
2017-01-05T17:37:36.936Z,99.99
2017-01-05T17:39:44.239Z,99.99
2017-01-05T17:41:56.835Z,99.99
2017-01-05T17:44:09.115Z,99.99
2017-01-05T17:46:21.433Z,99.99
2017-01-05T17:48:33.834Z,99.99
2017-01-05T17:50:46.432Z,99.99
2017-01-05T17:53:00.031Z,99.99
2017-01-05T17:55:12.504Z,99.99
2017-01-05T17:57:28.539Z,99.99
2017-01-05T17:59:41.022Z,99.99
2017-01-05T18:01:48.460Z,99.99
2017-01-05T18:03:55.988Z,99.99
2017-01-05T18:06:04.567Z,99.99
2017-01-05T18:08:17.102Z,99.99
2017-01-05T18:10:30.189Z,99.99
2017-01-05T18:12:42.745Z,99.99
2017-01-05T18:14:58.310Z,99.99
2017-01-05T18:17:13.358Z,99.99
2017-01-05T18:19:26.484Z,99.99
2017-01-05T18:21:38.896Z,99.99
2017-01-05T18:23:51.092Z,99.99
2017-01-05T18:26:03.389Z,99.99
2017-01-05T18:28:10.920Z,99.99
2017-01-05T18:30:18.296Z,99.99
2017-01-05T18:32:30.696Z,99.99
2017-01-05T18:34:43.124Z,99.99
2017-01-05T18:36:55.419Z,99.99
2017-01-05T18:39:07.999Z,99.99
2017-01-05T18:41:20.475Z,99.99
2017-01-05T18:43:33.447Z,99.99
2017-01-05T18:45:48.405Z,99.99
2017-01-05T18:48:01.422Z,99.99
2017-01-05T18:50:09.452Z,99.99
2017-01-05T18:52:26.387Z,99.99
2017-01-05T18:54:44.132Z,99.99
2017-01-05T18:56:59.262Z,99.99
2017-01-05T18:59:06.639Z,99.99
2017-01-05T19:01:15.523Z,99.99
2017-01-05T19:03:28.231Z,99.99
2017-01-05T19:05:40.745Z,99.99
2017-01-05T19:08:05.655Z,99.99
2017-01-05T19:10:18.270Z,99.99
2017-01-05T19:12:26.254Z,99.99
2017-01-05T19:14:40.716Z,99.99
2017-01-05T19:16:57.420Z,99.99
2017-01-05T19:19:05.371Z,99.99
2017-01-05T19:21:22.972Z,99.99
2017-01-05T19:23:35.362Z,99.99
2017-01-05T19:25:47.954Z,99.99
2017-01-05T19:28:00.334Z,99.99
2017-01-05T19:30:14.678Z,99.99
2017-01-05T19:32:27.024Z,99.99
2017-01-05T19:34:39.609Z,99.99
2017-01-05T19:36:52.350Z,99.99
2017-01-05T19:38:59.684Z,99.99
2017-01-05T19:41:14.261Z,99.99
2017-01-05T19:43:26.634Z,99.99
2017-01-05T19:45:40.733Z,99.99
2017-01-05T19:47:54.945Z,99.99
2017-01-05T19:50:07.990Z,99.99
2017-01-05T19:52:17.343Z,99.99
2017-01-05T19:54:32.475Z,99.99
2017-01-05T19:56:47.378Z,99.99
2017-01-05T19:59:02.037Z,99.99
2017-01-05T20:01:19.422Z,99.99
2017-01-05T20:03:33.313Z,99.99
2017-01-05T20:05:47.200Z,99.99
2017-01-05T20:08:06.381Z,99.99
2017-01-05T20:10:21.381Z,99.99
2017-01-05T20:12:35.703Z,99.99
2017-01-05T20:14:49.284Z,99.99
2017-01-05T20:17:02.485Z,99.99
2017-01-05T20:19:17.307Z,99.99
2017-01-05T20:21:31.047Z,99.99
2017-01-05T20:23:47.079Z,99.99
2017-01-05T20:26:00.283Z,99.99
2017-01-05T20:28:15.333Z,99.99
2017-01-05T20:30:28.815Z,99.99
2017-01-05T20:32:37.297Z,99.99
2017-01-05T20:34:51.659Z,99.99
2017-01-05T20:37:06.280Z,99.99
2017-01-05T20:39:15.196Z,99.99
2017-01-05T20:41:29.541Z,99.99
2017-01-05T20:43:42.444Z,99.99
2017-01-05T20:46:02.380Z,99.99
2017-01-05T20:48:21.391Z,99.99
2017-01-05T20:50:36.332Z,99.99
2017-01-05T20:52:52.629Z,99.99
2017-01-05T20:55:06.531Z,99.99
2017-01-05T20:57:21.182Z,99.99
2017-01-05T20:59:36.336Z,99.99
2017-01-05T21:01:52.005Z,99.99
2017-01-05T21:04:04.873Z,99.99
2017-01-05T21:06:22.111Z,99.99
2017-01-05T21:08:35.286Z,99.99
2017-01-05T21:10:48.676Z,99.99
2017-01-05T21:13:01.768Z,99.99
2017-01-05T21:15:14.466Z,99.99
2017-01-05T21:17:32.682Z,99.99
2017-01-05T21:19:54.572Z,99.99
2017-01-05T21:22:41.604Z,99.99
2017-01-05T21:25:31.252Z,99.99
2017-01-05T21:28:18.236Z,99.99
2017-01-05T21:31:05.321Z,99.99
2017-01-05T21:33:52.735Z,99.99
2017-01-05T21:36:44.245Z,99.99
2017-01-05T21:39:33.825Z,99.99
2017-01-05T21:42:12.573Z,99.99
2017-01-05T21:44:25.440Z,99.99
2017-01-05T21:46:54.499Z,99.99
2017-01-05T21:49:23.703Z,99.99
2017-01-05T21:52:09.393Z,99.99
2017-01-05T21:54:56.838Z,99.99
2017-01-05T21:57:37.228Z,99.99
2017-01-05T22:00:26.075Z,99.99
2017-01-05T22:03:09.604Z,99.99
2017-01-05T22:06:01.487Z,99.99
2017-01-05T22:08:53.978Z,99.99
2017-01-05T22:11:42.717Z,99.99
2017-01-05T22:14:33.721Z,99.99
2017-01-05T22:17:23.557Z,99.99
2017-01-05T22:20:14.210Z,99.99
2017-01-05T22:23:02.399Z,99.99
2017-01-05T22:25:46.018Z,99.99
2017-01-05T22:28:28.760Z,99.99
2017-01-05T22:31:11.305Z,99.99
2017-01-05T22:34:02.018Z,99.99
2017-01-05T22:36:43.244Z,99.99
2017-01-05T22:39:28.270Z,99.99
2017-01-05T22:42:04.279Z,99.99
2017-01-05T22:44:28.324Z,99.99
2017-01-05T22:46:58.501Z,99.99
2017-01-05T22:49:38.067Z,99.99
2017-01-05T22:52:04.157Z,99.99
2017-01-05T22:54:40.888Z,99.99
2017-01-05T22:56:56.583Z,99.99
2017-01-05T22:59:09.291Z,99.99
2017-01-05T23:01:35.488Z,99.99
2017-01-05T23:04:06.425Z,99.99
2017-01-05T23:06:28.399Z,99.99
2017-01-05T23:08:49.551Z,99.99
2017-01-05T23:11:06.005Z,99.99
2017-01-05T23:13:40.928Z,99.99
2017-01-05T23:16:30.031Z,99.99
2017-01-05T23:19:13.515Z,99.99
2017-01-05T23:21:33.624Z,99.99
2017-01-05T23:23:52.733Z,99.99
2017-01-05T23:26:24.102Z,99.99
2017-01-05T23:28:39.941Z,99.99
2017-01-05T23:31:05.976Z,99.99
2017-01-05T23:33:31.715Z,99.99
2017-01-05T23:35:50.263Z,99.99
2017-01-05T23:38:14.028Z,99.99
2017-01-05T23:40:42.176Z,99.99
2017-01-05T23:43:10.980Z,99.99
2017-01-05T23:45:35.408Z,99.99
2017-01-05T23:48:01.851Z,99.99
2017-01-05T23:50:35.879Z,99.99
2017-01-05T23:53:06.144Z,99.99
2017-01-05T23:55:33.605Z,99.99
2017-01-05T23:57:41.085Z,99.99
2017-01-05T23:59:53.460Z,99.99
